sensor_id;sensor_type;location;lat;lon;timestamp;P1;durP1;ratioP1;P2;durP2;ratioP2
15966;SDS011;15175;48.154;11.534;2023-11-18T00:01:10;7.05;;;4.55;;
15966;SDS011;15175;48.154;11.534;2023-11-18T00:07:12;7.47;;;4.90;;
15966;SDS011;15175;48.154;11.534;2023-11-18T00:13:14;6.75;;;4.70;;
15966;SDS011;15175;48.154;11.534;2023-11-18T00:19:18;6.90;;;4.53;;
15966;SDS011;15175;48.154;11.534;2023-11-18T00:25:20;7.13;;;4.72;;
15966;SDS011;15175;48.154;11.534;2023-11-18T00:31:22;8.15;;;4.50;;
15966;SDS011;15175;48.154;11.534;2023-11-18T00:37:26;5.78;;;3.53;;
15966;SDS011;15175;48.154;11.534;2023-11-18T00:43:28;5.05;;;3.30;;
15966;SDS011;15175;48.154;11.534;2023-11-18T00:49:31;5.10;;;2.70;;
15966;SDS011;15175;48.154;11.534;2023-11-18T00:55:36;4.70;;;2.60;;
15966;SDS011;15175;48.154;11.534;2023-11-18T01:01:38;5.43;;;2.60;;
15966;SDS011;15175;48.154;11.534;2023-11-18T01:07:40;3.55;;;2.10;;
15966;SDS011;15175;48.154;11.534;2023-11-18T01:13:44;3.42;;;1.80;;
15966;SDS011;15175;48.154;11.534;2023-11-18T01:19:47;3.08;;;1.80;;
15966;SDS011;15175;48.154;11.534;2023-11-18T01:25:49;4.03;;;2.17;;
15966;SDS011;15175;48.154;11.534;2023-11-18T01:31:53;4.05;;;1.80;;
15966;SDS011;15175;48.154;11.534;2023-11-18T01:37:56;3.53;;;1.73;;
15966;SDS011;15175;48.154;11.534;2023-11-18T01:43:58;3.80;;;2.08;;
15966;SDS011;15175;48.154;11.534;2023-11-18T01:50:02;3.35;;;1.73;;
15966;SDS011;15175;48.154;11.534;2023-11-18T01:56:07;3.63;;;1.48;;
15966;SDS011;15175;48.154;11.534;2023-11-18T02:02:11;3.25;;;1.73;;
15966;SDS011;15175;48.154;11.534;2023-11-18T02:08:16;4.55;;;2.10;;
15966;SDS011;15175;48.154;11.534;2023-11-18T02:14:19;4.00;;;2.00;;
15966;SDS011;15175;48.154;11.534;2023-11-18T02:26:26;5.25;;;1.90;;
15966;SDS011;15175;48.154;11.534;2023-11-18T02:32:29;3.83;;;2.08;;
15966;SDS011;15175;48.154;11.534;2023-11-18T02:38:39;3.85;;;1.80;;
15966;SDS011;15175;48.154;11.534;2023-11-18T02:44:47;3.88;;;2.13;;
15966;SDS011;15175;48.154;11.534;2023-11-18T02:50:59;3.13;;;1.80;;
15966;SDS011;15175;48.154;11.534;2023-11-18T02:57:02;4.88;;;2.10;;
15966;SDS011;15175;48.154;11.534;2023-11-18T03:03:05;2.90;;;1.60;;
15966;SDS011;15175;48.154;11.534;2023-11-18T03:09:07;3.50;;;1.70;;
15966;SDS011;15175;48.154;11.534;2023-11-18T03:15:10;3.97;;;2.00;;
15966;SDS011;15175;48.154;11.534;2023-11-18T03:21:14;3.65;;;1.80;;
15966;SDS011;15175;48.154;11.534;2023-11-18T03:33:18;6.47;;;2.53;;
15966;SDS011;15175;48.154;11.534;2023-11-18T03:39:22;3.53;;;2.10;;
15966;SDS011;15175;48.154;11.534;2023-11-18T03:45:25;4.78;;;2.40;;
15966;SDS011;15175;48.154;11.534;2023-11-18T03:51:27;4.78;;;2.40;;
15966;SDS011;15175;48.154;11.534;2023-11-18T03:57:30;4.05;;;2.22;;
15966;SDS011;15175;48.154;11.534;2023-11-18T04:03:33;5.47;;;2.33;;
15966;SDS011;15175;48.154;11.534;2023-11-18T04:09:36;5.10;;;2.70;;
15966;SDS011;15175;48.154;11.534;2023-11-18T04:15:42;4.68;;;2.60;;
15966;SDS011;15175;48.154;11.534;2023-11-18T04:21:46;7.38;;;2.60;;
15966;SDS011;15175;48.154;11.534;2023-11-18T04:27:49;4.65;;;2.88;;
15966;SDS011;15175;48.154;11.534;2023-11-18T04:33:53;5.05;;;2.88;;
15966;SDS011;15175;48.154;11.534;2023-11-18T04:39:56;5.18;;;3.13;;
15966;SDS011;15175;48.154;11.534;2023-11-18T04:45:58;5.00;;;3.00;;
15966;SDS011;15175;48.154;11.534;2023-11-18T04:52:02;5.53;;;3.30;;
15966;SDS011;15175;48.154;11.534;2023-11-18T04:58:06;4.97;;;2.97;;
15966;SDS011;15175;48.154;11.534;2023-11-18T05:04:09;5.75;;;2.88;;
15966;SDS011;15175;48.154;11.534;2023-11-18T05:10:13;6.13;;;3.03;;
15966;SDS011;15175;48.154;11.534;2023-11-18T05:16:15;4.18;;;2.30;;
15966;SDS011;15175;48.154;11.534;2023-11-18T05:22:18;4.90;;;2.85;;
15966;SDS011;15175;48.154;11.534;2023-11-18T05:28:21;5.75;;;2.95;;
15966;SDS011;15175;48.154;11.534;2023-11-18T05:34:24;5.35;;;2.63;;
15966;SDS011;15175;48.154;11.534;2023-11-18T05:40:27;6.40;;;3.58;;
15966;SDS011;15175;48.154;11.534;2023-11-18T05:46:31;6.53;;;3.33;;
15966;SDS011;15175;48.154;11.534;2023-11-18T05:52:33;4.93;;;2.88;;
15966;SDS011;15175;48.154;11.534;2023-11-18T05:58:35;5.05;;;2.97;;
15966;SDS011;15175;48.154;11.534;2023-11-18T06:04:40;4.60;;;2.78;;
15966;SDS011;15175;48.154;11.534;2023-11-18T06:10:42;6.07;;;3.30;;
15966;SDS011;15175;48.154;11.534;2023-11-18T06:16:47;6.18;;;3.47;;
15966;SDS011;15175;48.154;11.534;2023-11-18T06:22:52;5.35;;;2.85;;
15966;SDS011;15175;48.154;11.534;2023-11-18T06:34:56;8.75;;;3.25;;
15966;SDS011;15175;48.154;11.534;2023-11-18T06:41:00;5.85;;;3.05;;
15966;SDS011;15175;48.154;11.534;2023-11-18T06:47:03;6.28;;;2.95;;
15966;SDS011;15175;48.154;11.534;2023-11-18T06:53:06;5.13;;;2.97;;
15966;SDS011;15175;48.154;11.534;2023-11-18T06:59:10;5.40;;;3.10;;
15966;SDS011;15175;48.154;11.534;2023-11-18T07:05:14;5.47;;;2.70;;
15966;SDS011;15175;48.154;11.534;2023-11-18T07:11:16;6.32;;;3.42;;
15966;SDS011;15175;48.154;11.534;2023-11-18T07:17:20;5.35;;;2.90;;
15966;SDS011;15175;48.154;11.534;2023-11-18T07:23:22;5.72;;;3.08;;
15966;SDS011;15175;48.154;11.534;2023-11-18T07:29:25;6.13;;;3.28;;
15966;SDS011;15175;48.154;11.534;2023-11-18T07:35:28;6.97;;;3.65;;
15966;SDS011;15175;48.154;11.534;2023-11-18T07:41:31;6.30;;;3.38;;
15966;SDS011;15175;48.154;11.534;2023-11-18T07:47:33;6.43;;;3.45;;
15966;SDS011;15175;48.154;11.534;2023-11-18T07:53:37;6.32;;;3.60;;
15966;SDS011;15175;48.154;11.534;2023-11-18T07:59:39;7.60;;;3.38;;
15966;SDS011;15175;48.154;11.534;2023-11-18T08:05:42;7.07;;;3.17;;
15966;SDS011;15175;48.154;11.534;2023-11-18T08:17:49;4.93;;;3.00;;
15966;SDS011;15175;48.154;11.534;2023-11-18T08:23:51;8.23;;;2.90;;
15966;SDS011;15175;48.154;11.534;2023-11-18T08:29:55;6.68;;;3.30;;
15966;SDS011;15175;48.154;11.534;2023-11-18T08:41:59;5.03;;;2.67;;
15966;SDS011;15175;48.154;11.534;2023-11-18T08:48:03;5.75;;;2.88;;
15966;SDS011;15175;48.154;11.534;2023-11-18T08:54:07;4.32;;;2.38;;
15966;SDS011;15175;48.154;11.534;2023-11-18T09:00:24;4.20;;;2.45;;
15966;SDS011;15175;48.154;11.534;2023-11-18T09:06:51;6.55;;;2.78;;
15966;SDS011;15175;48.154;11.534;2023-11-18T09:12:54;6.55;;;2.65;;
15966;SDS011;15175;48.154;11.534;2023-11-18T09:18:57;4.65;;;2.03;;
15966;SDS011;15175;48.154;11.534;2023-11-18T09:25:01;4.50;;;1.90;;
15966;SDS011;15175;48.154;11.534;2023-11-18T09:31:09;2.53;;;1.50;;
15966;SDS011;15175;48.154;11.534;2023-11-18T09:37:11;3.22;;;1.60;;
15966;SDS011;15175;48.154;11.534;2023-11-18T09:49:22;3.85;;;1.80;;
15966;SDS011;15175;48.154;11.534;2023-11-18T09:55:35;3.47;;;1.95;;
15966;SDS011;15175;48.154;11.534;2023-11-18T10:01:53;4.25;;;2.10;;
15966;SDS011;15175;48.154;11.534;2023-11-18T10:07:58;3.40;;;1.80;;
15966;SDS011;15175;48.154;11.534;2023-11-18T10:14:00;2.63;;;1.27;;
15966;SDS011;15175;48.154;11.534;2023-11-18T10:20:08;6.80;;;1.80;;
15966;SDS011;15175;48.154;11.534;2023-11-18T10:26:16;3.25;;;1.60;;
15966;SDS011;15175;48.154;11.534;2023-11-18T10:32:18;2.60;;;1.33;;
15966;SDS011;15175;48.154;11.534;2023-11-18T10:38:24;2.92;;;1.48;;
15966;SDS011;15175;48.154;11.534;2023-11-18T10:44:26;3.50;;;1.13;;
15966;SDS011;15175;48.154;11.534;2023-11-18T10:50:29;3.47;;;1.25;;
15966;SDS011;15175;48.154;11.534;2023-11-18T10:56:33;3.35;;;1.30;;
15966;SDS011;15175;48.154;11.534;2023-11-18T11:02:38;2.50;;;1.10;;
15966;SDS011;15175;48.154;11.534;2023-11-18T11:08:41;4.18;;;1.33;;
15966;SDS011;15175;48.154;11.534;2023-11-18T11:14:46;2.35;;;1.30;;
15966;SDS011;15175;48.154;11.534;2023-11-18T11:20:57;2.70;;;1.10;;
15966;SDS011;15175;48.154;11.534;2023-11-18T11:27:09;2.10;;;1.30;;
15966;SDS011;15175;48.154;11.534;2023-11-18T11:33:31;2.47;;;1.00;;
15966;SDS011;15175;48.154;11.534;2023-11-18T11:39:41;2.17;;;0.90;;
15966;SDS011;15175;48.154;11.534;2023-11-18T11:45:47;3.67;;;1.08;;
15966;SDS011;15175;48.154;11.534;2023-11-18T11:51:54;3.70;;;1.15;;
15966;SDS011;15175;48.154;11.534;2023-11-18T12:04:03;2.60;;;0.90;;
15966;SDS011;15175;48.154;11.534;2023-11-18T12:10:12;3.90;;;1.15;;
15966;SDS011;15175;48.154;11.534;2023-11-18T12:16:21;2.22;;;0.70;;
15966;SDS011;15175;48.154;11.534;2023-11-18T12:23:07;2.70;;;1.27;;
15966;SDS011;15175;48.154;11.534;2023-11-18T12:29:32;1.85;;;0.65;;
15966;SDS011;15175;48.154;11.534;2023-11-18T12:35:37;2.50;;;0.90;;
15966;SDS011;15175;48.154;11.534;2023-11-18T12:41:55;1.42;;;0.60;;
15966;SDS011;15175;48.154;11.534;2023-11-18T12:48:08;3.83;;;0.95;;
15966;SDS011;15175;48.154;11.534;2023-11-18T12:54:16;0.70;;;0.47;;
15966;SDS011;15175;48.154;11.534;2023-11-18T13:00:18;2.58;;;0.70;;
15966;SDS011;15175;48.154;11.534;2023-11-18T13:06:28;2.40;;;0.65;;
15966;SDS011;15175;48.154;11.534;2023-11-18T13:12:31;3.63;;;0.80;;
15966;SDS011;15175;48.154;11.534;2023-11-18T13:18:41;2.15;;;0.70;;
15966;SDS011;15175;48.154;11.534;2023-11-18T13:24:46;3.58;;;0.75;;
15966;SDS011;15175;48.154;11.534;2023-11-18T13:30:50;2.65;;;0.85;;
15966;SDS011;15175;48.154;11.534;2023-11-18T13:36:52;3.28;;;0.75;;
15966;SDS011;15175;48.154;11.534;2023-11-18T13:43:03;1.40;;;0.55;;
15966;SDS011;15175;48.154;11.534;2023-11-18T13:49:08;2.75;;;1.08;;
15966;SDS011;15175;48.154;11.534;2023-11-18T13:55:12;2.08;;;1.20;;
15966;SDS011;15175;48.154;11.534;2023-11-18T14:01:24;3.38;;;0.98;;
15966;SDS011;15175;48.154;11.534;2023-11-18T14:07:28;3.42;;;1.05;;
15966;SDS011;15175;48.154;11.534;2023-11-18T14:13:30;3.13;;;1.05;;
15966;SDS011;15175;48.154;11.534;2023-11-18T14:19:36;3.13;;;0.90;;
15966;SDS011;15175;48.154;11.534;2023-11-18T14:25:38;2.45;;;0.93;;
15966;SDS011;15175;48.154;11.534;2023-11-18T14:31:41;2.60;;;0.70;;
15966;SDS011;15175;48.154;11.534;2023-11-18T14:37:45;3.88;;;1.00;;
15966;SDS011;15175;48.154;11.534;2023-11-18T14:43:47;2.42;;;1.10;;
15966;SDS011;15175;48.154;11.534;2023-11-18T14:49:49;2.13;;;0.80;;
15966;SDS011;15175;48.154;11.534;2023-11-18T14:55:52;2.83;;;1.00;;
15966;SDS011;15175;48.154;11.534;2023-11-18T15:01:54;3.83;;;1.40;;
15966;SDS011;15175;48.154;11.534;2023-11-18T15:07:58;3.88;;;1.00;;
15966;SDS011;15175;48.154;11.534;2023-11-18T15:14:02;5.53;;;1.30;;
15966;SDS011;15175;48.154;11.534;2023-11-18T15:20:04;2.85;;;0.80;;
15966;SDS011;15175;48.154;11.534;2023-11-18T15:26:08;2.55;;;1.10;;
15966;SDS011;15175;48.154;11.534;2023-11-18T15:32:12;3.65;;;1.02;;
15966;SDS011;15175;48.154;11.534;2023-11-18T15:38:14;1.85;;;0.90;;
15966;SDS011;15175;48.154;11.534;2023-11-18T15:44:18;5.07;;;1.55;;
15966;SDS011;15175;48.154;11.534;2023-11-18T15:50:21;4.32;;;1.63;;
15966;SDS011;15175;48.154;11.534;2023-11-18T15:56:23;3.22;;;1.40;;
15966;SDS011;15175;48.154;11.534;2023-11-18T16:02:25;5.18;;;1.80;;
15966;SDS011;15175;48.154;11.534;2023-11-18T16:08:30;5.95;;;1.98;;
15966;SDS011;15175;48.154;11.534;2023-11-18T16:14:32;5.88;;;2.80;;
15966;SDS011;15175;48.154;11.534;2023-11-18T16:20:35;8.65;;;2.60;;
15966;SDS011;15175;48.154;11.534;2023-11-18T16:26:39;8.73;;;2.50;;
15966;SDS011;15175;48.154;11.534;2023-11-18T16:32:41;4.30;;;1.63;;
15966;SDS011;15175;48.154;11.534;2023-11-18T16:38:44;6.78;;;2.10;;
15966;SDS011;15175;48.154;11.534;2023-11-18T16:44:47;3.28;;;1.45;;
15966;SDS011;15175;48.154;11.534;2023-11-18T16:56:51;14.90;;;2.15;;
15966;SDS011;15175;48.154;11.534;2023-11-18T17:02:55;4.68;;;1.88;;
15966;SDS011;15175;48.154;11.534;2023-11-18T17:08:58;4.20;;;1.80;;
15966;SDS011;15175;48.154;11.534;2023-11-18T17:15:01;6.28;;;2.47;;
15966;SDS011;15175;48.154;11.534;2023-11-18T17:21:05;4.70;;;2.00;;
15966;SDS011;15175;48.154;11.534;2023-11-18T17:27:09;5.82;;;2.90;;
15966;SDS011;15175;48.154;11.534;2023-11-18T17:33:12;3.78;;;1.83;;
15966;SDS011;15175;48.154;11.534;2023-11-18T17:39:16;3.70;;;1.50;;
15966;SDS011;15175;48.154;11.534;2023-11-18T17:45:19;4.55;;;2.00;;
15966;SDS011;15175;48.154;11.534;2023-11-18T17:51:21;4.50;;;2.08;;
15966;SDS011;15175;48.154;11.534;2023-11-18T17:57:24;5.32;;;2.13;;
15966;SDS011;15175;48.154;11.534;2023-11-18T18:03:27;4.18;;;1.80;;
15966;SDS011;15175;48.154;11.534;2023-11-18T18:09:30;5.88;;;2.33;;
15966;SDS011;15175;48.154;11.534;2023-11-18T18:15:34;4.15;;;1.95;;
15966;SDS011;15175;48.154;11.534;2023-11-18T18:21:36;3.85;;;1.60;;
15966;SDS011;15175;48.154;11.534;2023-11-18T18:27:38;2.97;;;1.30;;
15966;SDS011;15175;48.154;11.534;2023-11-18T18:33:42;3.58;;;1.60;;
15966;SDS011;15175;48.154;11.534;2023-11-18T18:39:44;4.57;;;2.33;;
15966;SDS011;15175;48.154;11.534;2023-11-18T18:45:47;6.05;;;2.35;;
15966;SDS011;15175;48.154;11.534;2023-11-18T18:51:50;6.32;;;2.53;;
15966;SDS011;15175;48.154;11.534;2023-11-18T19:03:54;2.65;;;1.08;;
15966;SDS011;15175;48.154;11.534;2023-11-18T19:09:58;2.67;;;1.08;;
15966;SDS011;15175;48.154;11.534;2023-11-18T19:16:00;2.47;;;0.80;;
15966;SDS011;15175;48.154;11.534;2023-11-18T19:22:03;1.92;;;0.90;;
15966;SDS011;15175;48.154;11.534;2023-11-18T19:28:07;3.15;;;1.23;;
15966;SDS011;15175;48.154;11.534;2023-11-18T19:34:11;3.42;;;1.35;;
15966;SDS011;15175;48.154;11.534;2023-11-18T19:40:13;3.53;;;1.80;;
15966;SDS011;15175;48.154;11.534;2023-11-18T19:46:17;3.90;;;1.33;;
15966;SDS011;15175;48.154;11.534;2023-11-18T19:52:21;3.15;;;1.40;;
15966;SDS011;15175;48.154;11.534;2023-11-18T19:58:24;2.70;;;1.25;;
15966;SDS011;15175;48.154;11.534;2023-11-18T20:04:31;3.08;;;1.00;;
15966;SDS011;15175;48.154;11.534;2023-11-18T20:10:33;3.22;;;1.20;;
15966;SDS011;15175;48.154;11.534;2023-11-18T20:16:36;2.88;;;0.90;;
15966;SDS011;15175;48.154;11.534;2023-11-18T20:22:39;3.30;;;1.15;;
15966;SDS011;15175;48.154;11.534;2023-11-18T20:28:41;3.00;;;1.05;;
15966;SDS011;15175;48.154;11.534;2023-11-18T20:34:44;1.98;;;0.85;;
15966;SDS011;15175;48.154;11.534;2023-11-18T20:40:48;4.97;;;1.10;;
15966;SDS011;15175;48.154;11.534;2023-11-18T20:46:51;2.60;;;1.15;;
15966;SDS011;15175;48.154;11.534;2023-11-18T20:52:55;3.85;;;0.98;;
15966;SDS011;15175;48.154;11.534;2023-11-18T20:58:59;3.58;;;1.00;;
15966;SDS011;15175;48.154;11.534;2023-11-18T21:05:02;5.32;;;1.10;;
15966;SDS011;15175;48.154;11.534;2023-11-18T21:11:07;2.30;;;0.90;;
15966;SDS011;15175;48.154;11.534;2023-11-18T21:17:12;3.35;;;1.02;;
15966;SDS011;15175;48.154;11.534;2023-11-18T21:23:14;3.17;;;1.17;;
15966;SDS011;15175;48.154;11.534;2023-11-18T21:29:16;2.83;;;1.17;;
15966;SDS011;15175;48.154;11.534;2023-11-18T21:35:20;3.08;;;0.88;;
15966;SDS011;15175;48.154;11.534;2023-11-18T21:47:24;3.30;;;1.05;;
15966;SDS011;15175;48.154;11.534;2023-11-18T21:53:28;1.65;;;0.70;;
15966;SDS011;15175;48.154;11.534;2023-11-18T21:59:30;2.95;;;0.82;;
15966;SDS011;15175;48.154;11.534;2023-11-18T22:05:32;3.00;;;1.00;;
15966;SDS011;15175;48.154;11.534;2023-11-18T22:11:36;2.50;;;0.90;;
15966;SDS011;15175;48.154;11.534;2023-11-18T22:17:38;2.17;;;0.93;;
15966;SDS011;15175;48.154;11.534;2023-11-18T22:23:43;3.30;;;1.30;;
15966;SDS011;15175;48.154;11.534;2023-11-18T22:29:47;7.10;;;2.50;;
15966;SDS011;15175;48.154;11.534;2023-11-18T22:35:49;7.18;;;1.48;;
15966;SDS011;15175;48.154;11.534;2023-11-18T22:41:51;4.53;;;1.70;;
15966;SDS011;15175;48.154;11.534;2023-11-18T22:47:55;5.35;;;2.10;;
15966;SDS011;15175;48.154;11.534;2023-11-18T22:53:57;3.20;;;1.10;;
15966;SDS011;15175;48.154;11.534;2023-11-18T22:59:59;3.45;;;1.30;;
15966;SDS011;15175;48.154;11.534;2023-11-18T23:06:03;3.35;;;1.65;;
15966;SDS011;15175;48.154;11.534;2023-11-18T23:12:08;2.22;;;1.10;;
15966;SDS011;15175;48.154;11.534;2023-11-18T23:18:10;2.85;;;1.23;;
15966;SDS011;15175;48.154;11.534;2023-11-18T23:24:14;2.30;;;1.10;;
15966;SDS011;15175;48.154;11.534;2023-11-18T23:30:16;2.70;;;1.38;;
15966;SDS011;15175;48.154;11.534;2023-11-18T23:36:21;4.68;;;1.88;;
15966;SDS011;15175;48.154;11.534;2023-11-18T23:42:24;4.03;;;1.40;;
15966;SDS011;15175;48.154;11.534;2023-11-18T23:48:26;3.83;;;1.23;;
15966;SDS011;15175;48.154;11.534;2023-11-18T23:54:29;2.80;;;1.40;;
